createdAt,value
2023-04-16T00:02:16.631Z,99.90
2023-04-16T00:04:44.067Z,99.90
2023-04-16T00:07:11.674Z,99.90
2023-04-16T00:09:38.959Z,99.90
2023-04-16T00:12:06.943Z,99.90
2023-04-16T00:14:34.285Z,99.90
2023-04-16T00:17:01.837Z,99.90
2023-04-16T00:19:29.276Z,99.90
2023-04-16T00:21:56.779Z,99.90
2023-04-16T00:24:23.991Z,99.90
2023-04-16T00:26:51.556Z,99.90
2023-04-16T00:29:18.816Z,99.90
2023-04-16T00:31:46.404Z,99.90
2023-04-16T00:34:13.603Z,99.90
2023-04-16T00:36:41.040Z,99.90
2023-04-16T00:39:08.585Z,99.90
2023-04-16T00:41:37.845Z,99.90
2023-04-16T00:44:05.083Z,99.90
2023-04-16T00:46:33.055Z,99.90
2023-04-16T00:49:01.423Z,99.90
2023-04-16T00:51:29.184Z,99.90
2023-04-16T00:53:57.689Z,99.90
2023-04-16T00:56:25.683Z,99.90
2023-04-16T00:58:54.467Z,99.90
2023-04-16T01:01:22.116Z,99.90
2023-04-16T01:03:50.081Z,99.90
2023-04-16T01:06:18.804Z,99.90
2023-04-16T01:08:47.672Z,99.90
2023-04-16T01:11:15.976Z,99.90
2023-04-16T01:13:43.215Z,99.90
2023-04-16T01:16:12.151Z,99.90
2023-04-16T01:18:39.923Z,99.90
2023-04-16T01:21:07.941Z,99.90
2023-04-16T01:23:35.172Z,99.90
2023-04-16T01:26:03.459Z,99.90
2023-04-16T01:28:30.937Z,99.90
2023-04-16T01:30:58.576Z,99.90
2023-04-16T01:33:57.898Z,99.90
2023-04-16T01:36:26.920Z,99.90
2023-04-16T01:38:55.048Z,99.90
2023-04-16T01:41:22.646Z,99.90
2023-04-16T01:43:49.884Z,99.90
2023-04-16T01:46:34.769Z,99.90
2023-04-16T01:49:03.049Z,99.90
2023-04-16T01:51:30.717Z,99.90
2023-04-16T01:53:58.446Z,99.90
2023-04-16T01:56:26.457Z,99.90
2023-04-16T01:58:53.969Z,99.90
2023-04-16T02:01:22.195Z,99.90
2023-04-16T02:03:49.912Z,99.90
2023-04-16T02:06:17.566Z,99.90
2023-04-16T02:08:45.952Z,99.90
2023-04-16T02:11:15.896Z,99.90
2023-04-16T02:13:43.621Z,99.90
2023-04-16T02:16:11.248Z,99.90
2023-04-16T02:18:47.022Z,99.90
2023-04-16T02:21:16.351Z,99.90
2023-04-16T02:23:47.521Z,99.90
2023-04-16T02:26:15.025Z,99.90
2023-04-16T02:28:42.822Z,99.90
2023-04-16T02:31:12.360Z,99.90
2023-04-16T02:33:44.350Z,99.90
2023-04-16T02:36:12.879Z,99.90
2023-04-16T02:38:40.199Z,99.90
2023-04-16T02:41:07.857Z,99.90
2023-04-16T02:43:35.301Z,99.90
2023-04-16T02:46:03.258Z,99.90
2023-04-16T02:48:30.471Z,99.90
2023-04-16T02:50:57.947Z,99.90
2023-04-16T02:53:25.400Z,99.90
2023-04-16T02:55:54.201Z,99.90
2023-04-16T02:58:23.939Z,99.90
2023-04-16T03:00:54.861Z,99.90
2023-04-16T03:03:22.522Z,99.90
2023-04-16T03:05:50.110Z,99.90
2023-04-16T03:08:17.414Z,99.90
2023-04-16T03:10:44.879Z,99.90
2023-04-16T03:13:12.059Z,99.90
2023-04-16T03:15:39.738Z,99.90
2023-04-16T03:18:07.020Z,99.90
2023-04-16T03:20:34.667Z,99.90
2023-04-16T03:23:01.958Z,99.90
2023-04-16T03:25:29.451Z,99.90
2023-04-16T03:27:56.805Z,99.90
2023-04-16T03:30:24.610Z,99.90
2023-04-16T03:32:52.097Z,99.90
2023-04-16T03:35:19.764Z,99.90
2023-04-16T03:37:47.208Z,99.90
2023-04-16T03:40:15.381Z,99.90
2023-04-16T03:42:43.084Z,99.90
2023-04-16T03:45:11.580Z,99.90
2023-04-16T03:47:39.935Z,99.90
2023-04-16T03:50:08.891Z,99.90
2023-04-16T03:52:36.802Z,99.90
2023-04-16T03:55:04.581Z,99.90
2023-04-16T03:57:32.426Z,99.90
2023-04-16T04:00:09.364Z,99.90
2023-04-16T04:02:50.094Z,99.90
2023-04-16T04:05:20.238Z,99.90
2023-04-16T04:07:48.390Z,99.90
2023-04-16T04:10:16.509Z,99.90
2023-04-16T04:12:44.127Z,99.90
2023-04-16T04:15:11.927Z,99.90
2023-04-16T04:17:39.226Z,99.90
2023-04-16T04:20:07.343Z,99.90
2023-04-16T04:22:34.598Z,99.90
2023-04-16T04:25:02.223Z,99.90
2023-04-16T04:27:32.147Z,99.90
2023-04-16T04:29:59.773Z,99.90
2023-04-16T04:32:28.079Z,99.90
2023-04-16T04:34:55.924Z,99.90
2023-04-16T04:37:23.179Z,99.90
2023-04-16T04:39:51.062Z,99.90
2023-04-16T04:42:19.071Z,99.90
2023-04-16T04:44:47.357Z,99.90
2023-04-16T04:47:15.435Z,99.90
2023-04-16T04:49:42.970Z,99.90
2023-04-16T04:52:10.304Z,99.90
2023-04-16T04:54:41.506Z,99.90
2023-04-16T04:57:09.016Z,99.90
2023-04-16T04:59:36.812Z,99.90
2023-04-16T05:02:04.211Z,99.90
2023-04-16T05:04:31.764Z,99.90
2023-04-16T05:06:58.948Z,99.90
2023-04-16T05:09:26.440Z,99.90
2023-04-16T05:11:53.796Z,99.90
2023-04-16T05:14:21.389Z,99.90
2023-04-16T05:16:48.682Z,99.90
2023-04-16T05:19:17.168Z,99.90
2023-04-16T05:21:44.421Z,99.90
2023-04-16T05:24:15.084Z,99.90
2023-04-16T05:26:42.401Z,99.90
2023-04-16T05:29:10.052Z,99.90
2023-04-16T05:31:37.495Z,99.90
2023-04-16T05:34:04.946Z,99.90
2023-04-16T05:36:32.179Z,99.90
2023-04-16T05:38:59.642Z,99.90
2023-04-16T05:41:26.808Z,99.90
2023-04-16T05:43:55.015Z,99.90
2023-04-16T05:46:22.301Z,99.90
2023-04-16T05:48:49.776Z,99.90
2023-04-16T05:51:17.028Z,99.90
2023-04-16T05:53:44.753Z,99.90
2023-04-16T05:56:12.105Z,99.90
2023-04-16T05:58:39.640Z,99.90
2023-04-16T06:01:07.945Z,99.90
2023-04-16T06:03:35.821Z,99.90
2023-04-16T06:06:03.203Z,99.90
2023-04-16T06:08:30.899Z,99.90
2023-04-16T06:10:58.215Z,99.90
2023-04-16T06:13:25.916Z,99.90
2023-04-16T06:15:53.150Z,99.90
2023-04-16T06:18:20.663Z,99.90
2023-04-16T06:20:47.984Z,99.90
2023-04-16T06:23:15.969Z,99.90
2023-04-16T06:25:43.131Z,99.90
2023-04-16T06:28:10.607Z,99.90
2023-04-16T06:30:39.080Z,99.90
2023-04-16T06:33:06.664Z,99.90
2023-04-16T06:35:33.856Z,99.90
2023-04-16T06:38:01.404Z,99.90
2023-04-16T06:40:28.691Z,99.90
2023-04-16T06:42:56.353Z,99.90
2023-04-16T06:45:23.622Z,99.90
2023-04-16T06:47:52.367Z,99.90
2023-04-16T06:50:19.718Z,99.90
2023-04-16T06:52:47.309Z,99.90
2023-04-16T06:55:14.501Z,99.90
2023-04-16T06:57:42.037Z,99.90
2023-04-16T07:00:09.984Z,99.90
2023-04-16T07:02:37.811Z,99.90
2023-04-16T07:05:05.798Z,99.90
2023-04-16T07:07:33.497Z,99.90
2023-04-16T07:10:00.841Z,99.90
2023-04-16T07:12:28.492Z,99.90
2023-04-16T07:14:55.831Z,99.90
2023-04-16T07:17:23.290Z,99.90
2023-04-16T07:19:52.196Z,99.90
2023-04-16T07:22:20.406Z,99.90
2023-04-16T07:24:47.644Z,99.90
2023-04-16T07:27:15.476Z,99.90
2023-04-16T07:29:42.827Z,99.90
2023-04-16T07:32:10.540Z,99.90
2023-04-16T07:34:38.186Z,99.90
2023-04-16T07:37:05.868Z,99.90
2023-04-16T07:39:33.230Z,99.90
2023-04-16T07:42:01.005Z,99.90
2023-04-16T07:44:28.241Z,99.90
2023-04-16T07:46:55.959Z,99.90
2023-04-16T07:49:23.284Z,99.90
2023-04-16T07:51:50.879Z,99.90
2023-04-16T07:54:18.171Z,99.90
2023-04-16T07:56:45.782Z,99.90
2023-04-16T07:59:21.863Z,99.90
2023-04-16T08:01:53.323Z,99.90
2023-04-16T08:04:25.483Z,99.90
2023-04-16T08:06:56.166Z,99.90
2023-04-16T08:09:27.334Z,99.90
2023-04-16T08:11:55.072Z,99.90
2023-04-16T08:14:22.283Z,99.90
2023-04-16T08:16:49.971Z,99.90
2023-04-16T08:19:17.520Z,99.90
2023-04-16T08:21:45.445Z,99.90
2023-04-16T08:24:12.803Z,99.90
2023-04-16T08:26:40.503Z,99.90
2023-04-16T08:29:07.984Z,99.90
2023-04-16T08:31:35.972Z,99.90
2023-04-16T08:34:03.254Z,99.90
2023-04-16T08:36:31.344Z,99.90
2023-04-16T08:38:58.745Z,99.90
2023-04-16T08:41:27.868Z,99.90
2023-04-16T09:51:28.386Z,99.90
2023-04-16T09:53:57.337Z,86.30
2023-04-16T09:56:30.397Z,86.30
2023-04-16T10:36:12.931Z,86.40
2023-04-16T10:38:44.870Z,92.00
2023-04-16T10:41:12.778Z,94.40
2023-04-16T10:43:44.926Z,96.00
2023-04-16T10:46:22.829Z,94.20
2023-04-16T10:48:53.699Z,94.40
2023-04-16T10:51:35.759Z,93.50
2023-04-16T10:54:19.458Z,93.90
2023-04-16T11:01:48.639Z,93.70
2023-04-16T11:04:22.187Z,92.30
2023-04-16T11:22:27.050Z,93.20
2023-04-16T11:24:56.531Z,87.10
2023-04-16T11:27:24.837Z,86.40
2023-04-16T11:29:59.748Z,81.50
2023-04-16T11:32:27.761Z,83.80
2023-04-16T11:34:55.098Z,84.40
2023-04-16T11:37:35.316Z,81.40
2023-04-16T11:40:12.689Z,80.40
2023-04-16T11:45:10.568Z,78.60
2023-04-16T11:47:52.174Z,79.20
2023-04-16T11:50:22.536Z,78.80
2023-04-16T11:52:51.920Z,76.30
2023-04-16T11:55:20.599Z,76.00
2023-04-16T11:57:48.659Z,73.80
2023-04-16T12:00:16.513Z,72.30
2023-04-16T12:02:51.349Z,72.60
2023-04-16T12:05:34.601Z,73.90
2023-04-16T12:48:10.982Z,76.80
2023-04-16T12:50:39.758Z,78.70
2023-04-16T12:53:07.416Z,78.00
2023-04-16T12:55:34.916Z,75.10
2023-04-16T12:58:02.565Z,75.00
2023-04-16T13:00:29.795Z,75.30
2023-04-16T13:02:57.385Z,74.80
2023-04-16T13:05:24.741Z,73.40
2023-04-16T13:07:52.254Z,73.40
2023-04-16T13:10:21.552Z,72.30
2023-04-16T13:12:49.312Z,71.80
2023-04-16T13:15:16.559Z,71.10
2023-04-16T13:17:44.186Z,73.70
2023-04-16T13:20:11.582Z,75.40
2023-04-16T13:22:39.371Z,74.40
2023-04-16T13:25:07.358Z,74.90
2023-04-16T13:27:34.930Z,76.00
2023-04-16T13:30:02.612Z,75.90
2023-04-16T13:32:31.316Z,77.50
2023-04-16T13:34:58.886Z,77.90
2023-04-16T13:37:26.698Z,78.90
2023-04-16T13:39:53.898Z,79.50
2023-04-16T13:49:49.376Z,77.40
2023-04-16T13:52:16.904Z,80.10
2023-04-16T13:54:44.219Z,80.10
2023-04-16T13:57:20.249Z,80.40
2023-04-16T13:59:47.716Z,80.60
2023-04-16T14:02:15.617Z,81.20
2023-04-16T14:04:42.887Z,80.50
2023-04-16T14:17:04.227Z,81.10
2023-04-16T14:19:31.479Z,83.00
2023-04-16T14:21:59.025Z,81.20
2023-04-16T14:24:26.350Z,81.30
2023-04-16T14:26:53.805Z,79.70
2023-04-16T14:29:21.197Z,78.50
2023-04-16T14:31:50.453Z,77.30
2023-04-16T14:34:17.820Z,78.60
2023-04-16T14:36:45.658Z,79.30
2023-04-16T14:51:34.025Z,84.20
2023-04-16T14:54:01.522Z,90.20
2023-04-16T14:56:29.100Z,91.10
2023-04-16T14:58:56.471Z,91.40
2023-04-16T15:01:24.456Z,91.70
2023-04-16T15:03:52.810Z,91.80
2023-04-16T15:06:20.534Z,92.80
2023-04-16T15:08:48.051Z,92.40
2023-04-16T15:11:15.828Z,92.30
2023-04-16T15:13:43.098Z,92.50
2023-04-16T15:16:10.601Z,92.40
2023-04-16T15:18:38.033Z,92.80
2023-04-16T15:21:05.824Z,93.20
2023-04-16T15:23:33.141Z,93.50
2023-04-16T15:26:00.836Z,93.70
2023-04-16T15:28:28.159Z,93.90
2023-04-16T15:30:56.425Z,94.20
2023-04-16T15:33:23.877Z,94.40
2023-04-16T15:35:51.726Z,94.20
2023-04-16T15:38:21.539Z,94.20
2023-04-16T15:40:49.093Z,94.00
2023-04-16T15:43:16.661Z,94.00
2023-04-16T15:45:44.184Z,94.60
2023-04-16T15:48:11.497Z,94.70
2023-04-16T15:50:39.288Z,94.90
2023-04-16T15:53:06.519Z,95.10
2023-04-16T15:55:34.886Z,95.20
2023-04-16T15:58:03.218Z,95.00
2023-04-16T16:00:31.035Z,95.10
2023-04-16T16:02:58.886Z,94.50
2023-04-16T16:05:27.273Z,94.80
2023-04-16T16:07:54.618Z,94.10
2023-04-16T16:10:22.869Z,93.40
2023-04-16T16:12:50.348Z,93.00
2023-04-16T16:15:17.962Z,93.10
2023-04-16T16:17:45.230Z,93.40
2023-04-16T16:20:13.434Z,90.70
2023-04-16T16:22:41.875Z,86.90
2023-04-16T16:25:10.344Z,79.50
2023-04-16T16:27:37.807Z,77.20
2023-04-16T16:30:07.400Z,77.40
2023-04-16T16:32:34.985Z,80.10
2023-04-16T16:37:30.378Z,84.50
2023-04-16T16:39:57.989Z,86.60
2023-04-16T17:12:16.532Z,78.70
2023-04-16T17:14:44.116Z,69.60
2023-04-16T17:19:39.396Z,75.90
2023-04-16T17:22:06.751Z,82.30
2023-04-16T17:24:34.335Z,85.60
2023-04-16T17:27:02.248Z,88.60
2023-04-16T17:29:30.171Z,90.60
2023-04-16T17:31:57.818Z,91.30
2023-04-16T17:34:25.491Z,92.90
2023-04-16T17:36:52.794Z,94.50
2023-04-16T17:39:21.031Z,96.00
2023-04-16T17:41:54.241Z,98.00
2023-04-16T17:44:23.204Z,99.10
2023-04-16T17:46:50.522Z,99.90
2023-04-16T17:49:18.040Z,99.90
2023-04-16T17:51:45.606Z,99.90
2023-04-16T17:54:13.248Z,99.90
2023-04-16T17:56:40.932Z,99.90
2023-04-16T17:59:08.524Z,99.90
2023-04-16T18:01:36.109Z,99.90
2023-04-16T18:04:04.080Z,99.90
2023-04-16T18:06:31.784Z,99.90
2023-04-16T18:08:59.404Z,99.90
2023-04-16T18:11:28.006Z,99.90
2023-04-16T18:13:56.466Z,99.90
2023-04-16T18:16:24.048Z,99.90
2023-04-16T18:18:51.874Z,99.90
2023-04-16T18:21:19.180Z,99.90
2023-04-16T18:23:47.058Z,99.90
2023-04-16T18:26:17.831Z,99.90
2023-04-16T18:28:47.876Z,99.90
2023-04-16T18:31:15.553Z,99.90
2023-04-16T18:36:13.595Z,99.90
2023-04-16T18:38:52.943Z,99.90
2023-04-16T18:41:27.149Z,99.90
2023-04-16T18:43:54.700Z,99.90
2023-04-16T18:46:22.078Z,99.90
2023-04-16T18:48:49.703Z,99.90
2023-04-16T18:51:17.274Z,99.90
2023-04-16T18:53:45.796Z,99.90
2023-04-16T18:56:13.312Z,99.90
2023-04-16T18:58:41.121Z,99.90
2023-04-16T19:01:11.423Z,99.90
2023-04-16T19:03:39.277Z,99.90
2023-04-16T19:06:06.891Z,99.90
2023-04-16T19:08:34.766Z,99.90
2023-04-16T19:11:02.155Z,99.90
2023-04-16T19:13:30.552Z,99.90
2023-04-16T19:15:59.950Z,99.90
2023-04-16T19:18:28.093Z,99.90
2023-04-16T19:21:01.584Z,99.90
2023-04-16T19:23:29.553Z,99.90
2023-04-16T19:25:57.184Z,99.90
2023-04-16T19:28:25.512Z,99.90
2023-04-16T19:30:54.026Z,99.90
2023-04-16T19:33:21.628Z,99.90
2023-04-16T19:35:49.020Z,99.90
2023-04-16T19:38:16.952Z,99.90
2023-04-16T19:40:46.677Z,99.90
2023-04-16T19:43:14.801Z,99.90
2023-04-16T19:45:46.356Z,99.90
2023-04-16T19:48:14.491Z,99.90
2023-04-16T19:50:42.702Z,99.90
2023-04-16T19:53:11.765Z,99.90
2023-04-16T19:55:40.959Z,99.90
2023-04-16T19:58:09.152Z,99.90
2023-04-16T20:00:37.997Z,99.90
2023-04-16T20:03:06.062Z,99.90
2023-04-16T20:05:33.432Z,99.90
2023-04-16T20:08:01.089Z,99.90
2023-04-16T20:10:29.468Z,99.90
2023-04-16T20:12:57.055Z,99.90
2023-04-16T20:15:24.346Z,99.90
2023-04-16T20:17:55.446Z,99.90
2023-04-16T20:20:23.766Z,99.90
2023-04-16T20:22:51.570Z,99.90
2023-04-16T20:25:19.704Z,99.90
2023-04-16T20:27:47.690Z,99.90
2023-04-16T20:30:15.257Z,99.90
2023-04-16T20:32:42.818Z,99.90
2023-04-16T20:35:11.525Z,99.90
2023-04-16T20:37:39.787Z,99.90
2023-04-16T20:40:08.973Z,99.90
2023-04-16T20:42:36.505Z,99.90
2023-04-16T20:45:03.980Z,99.90
2023-04-16T20:47:31.564Z,99.90
2023-04-16T20:50:01.933Z,99.90
2023-04-16T20:52:29.534Z,99.90
2023-04-16T20:54:56.803Z,99.90
2023-04-16T20:57:24.389Z,99.90
2023-04-16T20:59:51.712Z,99.90
2023-04-16T21:02:20.336Z,99.90
2023-04-16T21:04:47.788Z,99.90
2023-04-16T21:07:15.649Z,99.90
2023-04-16T21:09:42.912Z,99.90
2023-04-16T21:12:10.571Z,99.90
2023-04-16T21:14:37.911Z,99.90
2023-04-16T21:17:05.566Z,99.90
2023-04-16T21:19:32.848Z,99.90
2023-04-16T21:22:02.533Z,99.90
2023-04-16T21:24:31.433Z,99.90
2023-04-16T21:26:58.969Z,99.90
2023-04-16T21:29:26.332Z,99.90
2023-04-16T21:31:54.416Z,99.90
2023-04-16T21:34:21.772Z,99.90
2023-04-16T21:36:49.447Z,99.90
2023-04-16T21:39:17.796Z,99.90
2023-04-16T21:41:45.681Z,99.90
2023-04-16T21:44:13.159Z,99.90
2023-04-16T21:46:41.025Z,99.90
2023-04-16T21:49:08.738Z,99.90
2023-04-16T21:51:37.204Z,99.90
2023-04-16T21:54:05.605Z,99.90
2023-04-16T21:56:33.277Z,99.90
2023-04-16T21:59:01.274Z,99.90
2023-04-16T22:01:29.050Z,99.90
2023-04-16T22:11:11.413Z,99.90
2023-04-16T22:13:42.445Z,99.90
2023-04-16T22:16:11.772Z,99.90
2023-04-16T22:18:41.022Z,99.90
2023-04-16T22:21:08.293Z,99.90
2023-04-16T22:23:36.025Z,99.90
2023-04-16T22:26:04.104Z,99.90
2023-04-16T22:28:31.722Z,99.90
2023-04-16T22:30:59.007Z,99.90
2023-04-16T22:33:29.684Z,99.90
2023-04-16T22:35:57.063Z,99.90
2023-04-16T22:38:24.594Z,99.90
2023-04-16T22:40:51.867Z,99.90
2023-04-16T22:43:19.307Z,99.90
2023-04-16T22:45:46.578Z,99.90
2023-04-16T22:48:14.160Z,99.90
2023-04-16T22:50:48.411Z,99.90
2023-04-16T22:53:16.170Z,99.90
2023-04-16T22:55:43.468Z,99.90
2023-04-16T22:58:11.039Z,99.90
2023-04-16T23:00:38.239Z,99.90
2023-04-16T23:03:05.941Z,99.90
2023-04-16T23:05:33.836Z,99.90
2023-04-16T23:08:01.772Z,99.90
2023-04-16T23:10:28.979Z,99.90
2023-04-16T23:12:56.507Z,99.90
2023-04-16T23:15:23.683Z,99.90
2023-04-16T23:17:51.231Z,99.90
2023-04-16T23:20:18.564Z,99.90
2023-04-16T23:22:46.744Z,99.90
2023-04-16T23:25:14.900Z,99.90
2023-04-16T23:27:42.352Z,99.90
2023-04-16T23:30:09.899Z,99.90
2023-04-16T23:32:37.737Z,99.90
2023-04-16T23:35:05.692Z,99.90
2023-04-16T23:37:33.207Z,99.90
2023-04-16T23:40:00.530Z,99.90
2023-04-16T23:42:27.989Z,99.90
2023-04-16T23:44:55.505Z,99.90
2023-04-16T23:47:23.515Z,99.90
2023-04-16T23:49:50.891Z,99.90
2023-04-16T23:52:18.395Z,99.90
2023-04-16T23:54:45.614Z,99.90
2023-04-16T23:57:13.189Z,99.90
2023-04-16T23:59:40.507Z,99.90
